»·PEaware :: SWA130 KSNA-KLAS

SWA130 :: KSNA-KLAS

FLIGHT INFORMATION

Flight Status: Arrived
Operator:
Southwest Airlines
More flights by this operator :: More flights under this callsign
Pilot: Cody B. (17747)
Aircraft: BOEING 737-800
(B738)
More flights by this aircraft type
Origin: KSNA John Wayne-Orange Co
United States
Destination: KLAS McCarran Intl
United States
More flights between these airports :: More routes between these airports
Route: +FINZZ2 MISEN KEPEC6
File this flight plan on PilotEdge
Remarks:
Altitude:
(Current/Filed)
29,000ft
Speed:
(Current/Filed)
425kts
Departed: 16-Apr-18 06:21 PM
Arrived: 16-Apr-18 07:14 PM
Distance/Time
Traveled:
197nm/0:53
Distance/Time
To Go:
Arrived

Flight Plot

Page will automatically refresh every two minutes.

Flight plan parsing failed; only flown route is shown


Map Options




Map Legend


Flown Route
Filed Route
Departure Airport
Arrival Airport
Navaid (VOR, NDB)
Fix

Horizontal Profiles

Position Reports

Time Latitude Longitude Heading Altitude Ground
Speed
16-Apr-18 17:30 33.675729 -117.864666 117 47ft 0kts
16-Apr-18 17:31 33.675729 -117.864666 117 47ft 0kts
16-Apr-18 17:32 33.675729 -117.864666 117 47ft 0kts
16-Apr-18 17:33 33.675729 -117.864666 117 47ft 0kts
16-Apr-18 17:34 33.675729 -117.864666 117 47ft 0kts
16-Apr-18 17:35 33.675729 -117.864666 117 47ft 0kts
16-Apr-18 17:36 33.675729 -117.864666 117 47ft 0kts
16-Apr-18 17:37 33.675729 -117.864666 117 47ft 0kts
16-Apr-18 17:38 33.675729 -117.864666 117 47ft 0kts
16-Apr-18 17:39 33.675729 -117.864666 117 47ft 0kts
16-Apr-18 17:40 33.675729 -117.864666 117 47ft 0kts
16-Apr-18 17:41 33.675729 -117.864666 117 47ft 0kts
16-Apr-18 17:42 33.675729 -117.864666 117 47ft 0kts
16-Apr-18 17:43 33.675729 -117.864666 117 47ft 0kts
16-Apr-18 17:44 33.675729 -117.864666 117 47ft 0kts
16-Apr-18 17:45 33.675729 -117.864666 117 47ft 0kts
16-Apr-18 17:46 33.675729 -117.864666 117 47ft 0kts
16-Apr-18 17:47 33.675729 -117.864666 117 47ft 0kts
16-Apr-18 17:48 33.675729 -117.864666 117 47ft 0kts
16-Apr-18 17:49 33.675729 -117.864666 117 47ft 0kts
16-Apr-18 17:50 33.675729 -117.864666 117 47ft 0kts
16-Apr-18 17:51 33.675729 -117.864666 117 47ft 0kts
16-Apr-18 17:52 33.675729 -117.864666 117 47ft 0kts
16-Apr-18 17:53 33.675729 -117.864666 117 47ft 0kts
16-Apr-18 17:54 33.675729 -117.864666 117 47ft 0kts
16-Apr-18 17:55 33.675729 -117.864666 117 47ft 0kts
16-Apr-18 17:56 33.675729 -117.864666 117 47ft 0kts
16-Apr-18 17:57 33.675729 -117.864666 117 47ft 0kts
16-Apr-18 17:58 33.675729 -117.864666 117 47ft 0kts
16-Apr-18 17:59 33.675729 -117.864666 117 47ft 0kts
16-Apr-18 18:00 33.675729 -117.864666 117 47ft 0kts
16-Apr-18 18:01 33.675729 -117.864666 117 47ft 0kts
16-Apr-18 18:02 33.675729 -117.864666 117 47ft 0kts
16-Apr-18 18:03 33.675729 -117.864666 117 47ft 0kts
16-Apr-18 18:04 33.675729 -117.864666 117 47ft 0kts
16-Apr-18 18:05 33.675729 -117.864666 117 47ft 0kts
16-Apr-18 18:06 33.675729 -117.864666 117 47ft 0kts
16-Apr-18 18:07 33.675729 -117.864666 117 47ft 0kts
16-Apr-18 18:08 33.675729 -117.864666 117 47ft 0kts
16-Apr-18 18:09 33.675736 -117.864681 118 47ft 1kts
16-Apr-18 18:10 33.675940 -117.865150 103 47ft 1kts
16-Apr-18 18:11 33.675802 -117.865426 28 48ft 0kts
16-Apr-18 18:12 33.675803 -117.865425 27 48ft 0kts
16-Apr-18 18:13 33.675803 -117.865425 27 48ft 0kts
16-Apr-18 18:14 33.675955 -117.865329 27 48ft 1kts
16-Apr-18 18:15 33.677352 -117.864429 27 44ft 9kts
16-Apr-18 18:16 33.680361 -117.862644 343 42ft 7kts
16-Apr-18 18:17 33.680651 -117.863095 297 43ft 0kts
16-Apr-18 18:18 33.681140 -117.864208 297 44ft 10kts
16-Apr-18 18:19 33.681347 -117.865187 209 44ft 1kts
16-Apr-18 18:20 33.655400 -117.880069 209 1724ft 150kts
16-Apr-18 18:21 33.604127 -117.894893 192 3799ft 243kts
16-Apr-18 18:22 33.545799 -117.926464 225 4981ft 234kts
16-Apr-18 18:23 33.498750 -117.981118 238 8073ft 237kts
16-Apr-18 18:24 33.519375 -118.053380 304 8719ft 262kts
16-Apr-18 18:25 33.572848 -118.114486 326 10209ft 288kts
16-Apr-18 18:26 33.661648 -118.094670 24 12708ft 379kts
16-Apr-18 18:27 33.757362 -118.034406 18 15824ft 400kts
16-Apr-18 18:28 33.859289 -117.973874 18 16959ft 413kts
16-Apr-18 18:29 33.958193 -117.902403 32 17316ft 433kts
16-Apr-18 18:30 34.053247 -117.812844 31 20337ft 443kts
16-Apr-18 18:31 34.140524 -117.709015 50 22825ft 465kts
16-Apr-18 18:32 34.221390 -117.584551 48 24968ft 480kts
16-Apr-18 18:33 34.306245 -117.456978 49 26802ft 498kts
16-Apr-18 18:34 34.393599 -117.325671 49 28548ft 511kts
16-Apr-18 18:35 34.483681 -117.190334 50 28932ft 527kts
16-Apr-18 18:36 34.577573 -117.050147 49 28932ft 545kts
16-Apr-18 18:37 34.675058 -116.907880 49 28900ft 551kts
16-Apr-18 18:38 34.773102 -116.764482 50 28903ft 554kts
16-Apr-18 18:39 34.872818 -116.622666 39 28892ft 552kts
16-Apr-18 18:40 34.990867 -116.509468 35 28786ft 513kts
16-Apr-18 18:41 35.100858 -116.402956 37 25974ft 497kts
16-Apr-18 18:42 35.196865 -116.285142 44 23103ft 494kts
16-Apr-18 18:43 35.289369 -116.168979 45 20336ft 471kts
16-Apr-18 18:44 35.378191 -116.057151 45 18628ft 457kts
16-Apr-18 18:45 35.464922 -115.947293 45 17209ft 440kts
16-Apr-18 18:46 35.548679 -115.840989 45 15555ft 427kts
16-Apr-18 18:47 35.629734 -115.737818 46 13870ft 406kts
16-Apr-18 18:48 35.704039 -115.643049 46 13023ft 365kts
16-Apr-18 18:49 35.784793 -115.573564 1 13023ft 358kts
16-Apr-18 18:50 35.883172 -115.566899 354 13015ft 353kts
16-Apr-18 18:51 35.975653 -115.534187 51 13011ft 368kts
16-Apr-18 18:52 36.015903 -115.424822 73 11547ft 326kts
16-Apr-18 18:53 36.029931 -115.323652 104 10383ft 294kts
16-Apr-18 18:54 36.021717 -115.224274 102 9270ft 287kts
16-Apr-18 18:55 36.015293 -115.134896 103 8473ft 250kts
16-Apr-18 18:56 36.012220 -115.048762 96 7549ft 256kts
16-Apr-18 18:57 36.012557 -114.975608 90 6548ft 250kts
16-Apr-18 18:58 36.071221 -114.921367 0 5176ft 236kts
16-Apr-18 18:59 36.086787 -114.964613 243 4538ft 164kts
16-Apr-18 19:00 36.076476 -115.020816 258 3389ft 158kts
16-Apr-18 19:01 36.074695 -115.066748 256 2915ft 121kts
16-Apr-18 19:02 36.073615 -115.106968 262 2315ft 115kts
16-Apr-18 19:03 36.073235 -115.147923 262 2714ft 125kts
16-Apr-18 19:04 36.071609 -115.192114 237 4760ft 148kts
16-Apr-18 19:05 36.035601 -115.205047 155 7094ft 187kts
16-Apr-18 19:06 36.014946 -115.144094 103 7421ft 211kts
16-Apr-18 19:07 36.009020 -115.064984 108 6396ft 235kts
16-Apr-18 19:08 36.008399 -114.986839 70 5353ft 231kts
16-Apr-18 19:09 36.058397 -114.971615 304 4327ft 191kts
16-Apr-18 19:10 36.074950 -115.021833 251 3740ft 142kts
16-Apr-18 19:11 36.073830 -115.068182 253 2979ft 130kts
16-Apr-18 19:12 36.073744 -115.111685 260 2347ft 129kts
16-Apr-18 19:13 36.073821 -115.143905 293 2096ft 25kts
16-Apr-18 19:14 36.074742 -115.146075 298 2103ft 0kts
16-Apr-18 19:15 36.075078 -115.146483 341 2104ft 10kts
16-Apr-18 19:16 36.078008 -115.148111 331 2104ft 10kts
16-Apr-18 19:17 36.079499 -115.147654 343 2100ft 0kts
16-Apr-18 19:18 36.079924 -115.147124 55 2096ft 0kts
16-Apr-18 19:19 36.079924 -115.147124 56 2096ft 0kts
16-Apr-18 19:20 36.079924 -115.147124 56 2096ft 0kts

Navigation Log

Ident Type
Flight plan parsing failed, navigation log unavailable